sensor_id;sensor_type;location;lat;lon;timestamp;pressure;altitude;pressure_sealevel;temperature;humidity
35331;BME280;21441;52.190;20.910;2023-04-21T00:00:58;100539.06;;;11.69;50.78
35331;BME280;21441;52.190;20.910;2023-04-21T00:03:26;100531.09;;;11.52;51.19
35331;BME280;21441;52.190;20.910;2023-04-21T00:05:55;100539.59;;;11.48;51.39
35331;BME280;21441;52.190;20.910;2023-04-21T00:08:24;100534.94;;;11.50;51.42
35331;BME280;21441;52.190;20.910;2023-04-21T00:10:52;100539.28;;;11.43;51.71
35331;BME280;21441;52.190;20.910;2023-04-21T00:13:20;100538.63;;;11.41;51.46
35331;BME280;21441;52.190;20.910;2023-04-21T00:15:48;100539.66;;;11.40;51.67
35331;BME280;21441;52.190;20.910;2023-04-21T00:18:15;100530.97;;;11.38;51.76
35331;BME280;21441;52.190;20.910;2023-04-21T00:20:43;100532.97;;;11.27;51.73
35331;BME280;21441;52.190;20.910;2023-04-21T00:23:11;100529.13;;;11.22;51.99
35331;BME280;21441;52.190;20.910;2023-04-21T00:25:38;100535.31;;;11.22;52.14
35331;BME280;21441;52.190;20.910;2023-04-21T00:28:06;100534.31;;;11.31;51.74
35331;BME280;21441;52.190;20.910;2023-04-21T00:30:34;100530.47;;;11.26;51.77
35331;BME280;21441;52.190;20.910;2023-04-21T00:33:01;100534.81;;;11.19;52.01
35331;BME280;21441;52.190;20.910;2023-04-21T00:35:28;100530.66;;;11.24;51.79
35331;BME280;21441;52.190;20.910;2023-04-21T00:37:57;100527.78;;;11.34;51.78
35331;BME280;21441;52.190;20.910;2023-04-21T00:40:24;100527.47;;;11.29;51.88
35331;BME280;21441;52.190;20.910;2023-04-21T00:42:51;100530.50;;;11.18;52.17
35331;BME280;21441;52.190;20.910;2023-04-21T00:45:18;100527.47;;;11.29;51.94
35331;BME280;21441;52.190;20.910;2023-04-21T00:47:47;100533.97;;;11.18;51.99
35331;BME280;21441;52.190;20.910;2023-04-21T00:50:14;100540.31;;;11.17;52.25
35331;BME280;21441;52.190;20.910;2023-04-21T00:52:42;100530.66;;;11.08;52.21
35331;BME280;21441;52.190;20.910;2023-04-21T00:55:11;100525.81;;;11.03;52.19
35331;BME280;21441;52.190;20.910;2023-04-21T00:57:39;100527.28;;;10.98;52.56
35331;BME280;21441;52.190;20.910;2023-04-21T01:00:07;100516.63;;;11.06;52.61
35331;BME280;21441;52.190;20.910;2023-04-21T01:02:36;100522.47;;;11.01;52.42
35331;BME280;21441;52.190;20.910;2023-04-21T01:05:06;100527.81;;;11.01;52.63
35331;BME280;21441;52.190;20.910;2023-04-21T01:07:34;100529.47;;;10.94;52.59
35331;BME280;21441;52.190;20.910;2023-04-21T01:10:01;100518.78;;;10.86;52.90
35331;BME280;21441;52.190;20.910;2023-04-21T01:12:29;100516.78;;;10.80;52.97
35331;BME280;21441;52.190;20.910;2023-04-21T01:14:56;100526.44;;;10.89;52.89
35331;BME280;21441;52.190;20.910;2023-04-21T01:17:23;100524.78;;;10.80;53.10
35331;BME280;21441;52.190;20.910;2023-04-21T01:19:52;100517.97;;;10.85;53.24
35331;BME280;21441;52.190;20.910;2023-04-21T01:22:23;100517.44;;;10.82;53.00
35331;BME280;21441;52.190;20.910;2023-04-21T01:24:51;100516.97;;;10.78;53.21
35331;BME280;21441;52.190;20.910;2023-04-21T01:27:19;100520.28;;;10.72;53.66
35331;BME280;21441;52.190;20.910;2023-04-21T01:29:47;100517.94;;;10.61;54.00
35331;BME280;21441;52.190;20.910;2023-04-21T01:32:16;100521.28;;;10.71;53.67
35331;BME280;21441;52.190;20.910;2023-04-21T01:34:45;100522.75;;;10.57;53.97
35331;BME280;21441;52.190;20.910;2023-04-21T01:37:14;100522.25;;;10.53;54.50
35331;BME280;21441;52.190;20.910;2023-04-21T01:39:46;100525.09;;;10.52;54.72
35331;BME280;21441;52.190;20.910;2023-04-21T01:42:17;100523.25;;;10.44;54.60
35331;BME280;21441;52.190;20.910;2023-04-21T01:44:45;100521.75;;;10.50;54.77
35331;BME280;21441;52.190;20.910;2023-04-21T01:47:14;100529.06;;;10.40;54.91
35331;BME280;21441;52.190;20.910;2023-04-21T01:49:41;100519.41;;;10.39;54.88
35331;BME280;21441;52.190;20.910;2023-04-21T01:52:09;100521.59;;;10.43;54.92
35331;BME280;21441;52.190;20.910;2023-04-21T01:54:36;100524.06;;;10.45;55.03
35331;BME280;21441;52.190;20.910;2023-04-21T01:57:05;100519.22;;;10.40;55.09
35331;BME280;21441;52.190;20.910;2023-04-21T01:59:32;100523.91;;;10.46;55.25
35331;BME280;21441;52.190;20.910;2023-04-21T02:01:59;100531.78;;;10.13;55.84
35331;BME280;21441;52.190;20.910;2023-04-21T02:04:26;100529.13;;;10.13;55.95
35331;BME280;21441;52.190;20.910;2023-04-21T02:06:54;100531.03;;;10.29;55.82
35331;BME280;21441;52.190;20.910;2023-04-21T02:09:21;100523.03;;;10.29;55.58
35331;BME280;21441;52.190;20.910;2023-04-21T02:11:48;100525.25;;;10.00;56.60
35331;BME280;21441;52.190;20.910;2023-04-21T02:14:17;100522.72;;;9.98;56.72
35331;BME280;21441;52.190;20.910;2023-04-21T02:16:44;100516.09;;;10.02;56.69
35331;BME280;21441;52.190;20.910;2023-04-21T02:19:11;100507.91;;;9.96;56.71
35331;BME280;21441;52.190;20.910;2023-04-21T02:21:38;100525.78;;;10.11;56.49
35331;BME280;21441;52.190;20.910;2023-04-21T02:24:05;100524.59;;;10.06;56.48
35331;BME280;21441;52.190;20.910;2023-04-21T02:26:33;100526.22;;;9.99;57.05
35331;BME280;21441;52.190;20.910;2023-04-21T02:29:00;100522.34;;;9.85;57.91
35331;BME280;21441;52.190;20.910;2023-04-21T02:31:29;100523.81;;;9.79;57.78
35331;BME280;21441;52.190;20.910;2023-04-21T02:33:56;100522.53;;;9.91;57.17
35331;BME280;21441;52.190;20.910;2023-04-21T02:36:23;100523.22;;;9.94;57.23
35331;BME280;21441;52.190;20.910;2023-04-21T02:38:50;100511.72;;;9.93;57.25
35331;BME280;21441;52.190;20.910;2023-04-21T02:41:18;100515.34;;;9.84;57.33
35331;BME280;21441;52.190;20.910;2023-04-21T02:43:45;100512.31;;;9.79;57.89
35331;BME280;21441;52.190;20.910;2023-04-21T02:46:12;100520.69;;;9.84;57.67
35331;BME280;21441;52.190;20.910;2023-04-21T02:48:40;100515.34;;;9.84;58.45
35331;BME280;21441;52.190;20.910;2023-04-21T02:51:10;100518.25;;;9.64;58.59
35331;BME280;21441;52.190;20.910;2023-04-21T02:53:38;100518.06;;;9.66;58.89
35331;BME280;21441;52.190;20.910;2023-04-21T02:56:06;100522.78;;;9.46;60.03
35331;BME280;21441;52.190;20.910;2023-04-21T02:58:33;100521.13;;;9.45;60.35
35331;BME280;21441;52.190;20.910;2023-04-21T03:01:02;100513.88;;;9.55;60.07
35331;BME280;21441;52.190;20.910;2023-04-21T03:03:31;100522.44;;;9.41;60.56
35331;BME280;21441;52.190;20.910;2023-04-21T03:06:01;100521.13;;;9.45;61.09
35331;BME280;21441;52.190;20.910;2023-04-21T03:08:28;100518.97;;;9.22;61.98
35331;BME280;21441;52.190;20.910;2023-04-21T03:10:56;100517.28;;;9.21;62.14
35331;BME280;21441;52.190;20.910;2023-04-21T03:13:23;100521.66;;;9.22;62.07
35331;BME280;21441;52.190;20.910;2023-04-21T03:15:51;100519.31;;;9.01;63.34
35331;BME280;21441;52.190;20.910;2023-04-21T03:18:18;100508.31;;;8.96;63.75
35331;BME280;21441;52.190;20.910;2023-04-21T03:20:45;100520.00;;;9.03;63.28
35331;BME280;21441;52.190;20.910;2023-04-21T03:23:14;100508.59;;;8.93;63.63
35331;BME280;21441;52.190;20.910;2023-04-21T03:25:41;100511.88;;;9.05;63.38
35331;BME280;21441;52.190;20.910;2023-04-21T03:28:08;100517.69;;;9.08;63.46
35331;BME280;21441;52.190;20.910;2023-04-21T03:30:35;100515.22;;;9.07;63.38
35331;BME280;21441;52.190;20.910;2023-04-21T03:33:03;100513.16;;;9.01;63.78
35331;BME280;21441;52.190;20.910;2023-04-21T03:35:31;100525.00;;;9.06;63.72
35331;BME280;21441;52.190;20.910;2023-04-21T03:37:59;100513.22;;;9.09;63.17
35331;BME280;21441;52.190;20.910;2023-04-21T03:40:27;100518.72;;;8.90;64.08
35331;BME280;21441;52.190;20.910;2023-04-21T03:42:54;100517.94;;;8.97;63.71
35331;BME280;21441;52.190;20.910;2023-04-21T03:45:22;100515.34;;;9.05;63.60
35331;BME280;21441;52.190;20.910;2023-04-21T03:47:52;100496.50;;;8.99;63.04
35331;BME280;21441;52.190;20.910;2023-04-21T03:50:19;100517.69;;;9.08;62.80
35331;BME280;21441;52.190;20.910;2023-04-21T03:52:46;100523.69;;;9.11;62.93
35331;BME280;21441;52.190;20.910;2023-04-21T03:55:14;100521.97;;;9.01;63.18
35331;BME280;21441;52.190;20.910;2023-04-21T03:57:42;100532.81;;;9.26;62.18
35331;BME280;21441;52.190;20.910;2023-04-21T04:00:11;100539.50;;;9.30;61.90
35331;BME280;21441;52.190;20.910;2023-04-21T04:02:38;100540.06;;;9.42;61.17
35331;BME280;21441;52.190;20.910;2023-04-21T04:05:06;100538.38;;;9.15;62.02
35331;BME280;21441;52.190;20.910;2023-04-21T04:07:34;100533.69;;;9.35;61.21
35331;BME280;21441;52.190;20.910;2023-04-21T04:10:01;100538.50;;;9.31;61.26
35331;BME280;21441;52.190;20.910;2023-04-21T04:12:29;100534.53;;;9.35;61.26
35331;BME280;21441;52.190;20.910;2023-04-21T04:14:57;100545.97;;;9.54;59.80
35331;BME280;21441;52.190;20.910;2023-04-21T04:17:25;100542.16;;;9.56;59.99
35331;BME280;21441;52.190;20.910;2023-04-21T04:19:52;100551.03;;;9.65;59.39
35331;BME280;21441;52.190;20.910;2023-04-21T04:22:19;100532.03;;;9.60;59.17
35331;BME280;21441;52.190;20.910;2023-04-21T04:24:46;100541.41;;;9.72;58.47
35331;BME280;21441;52.190;20.910;2023-04-21T04:27:13;100548.44;;;9.81;58.10
35331;BME280;21441;52.190;20.910;2023-04-21T04:29:41;100547.53;;;9.99;57.60
35331;BME280;21441;52.190;20.910;2023-04-21T04:32:10;100556.59;;;10.06;57.10
35331;BME280;21441;52.190;20.910;2023-04-21T04:34:40;100547.94;;;10.12;56.57
35331;BME280;21441;52.190;20.910;2023-04-21T04:37:08;100548.78;;;10.21;55.98
35331;BME280;21441;52.190;20.910;2023-04-21T04:39:36;100557.84;;;10.28;55.81
35331;BME280;21441;52.190;20.910;2023-04-21T04:42:05;100559.03;;;10.33;55.69
35331;BME280;21441;52.190;20.910;2023-04-21T04:44:33;100557.56;;;10.39;55.31
35331;BME280;21441;52.190;20.910;2023-04-21T04:47:00;100554.44;;;10.60;54.88
35331;BME280;21441;52.190;20.910;2023-04-21T04:49:29;100555.13;;;10.70;54.79
35331;BME280;21441;52.190;20.910;2023-04-21T04:51:56;100555.81;;;10.81;53.92
35331;BME280;21441;52.190;20.910;2023-04-21T04:54:24;100557.66;;;10.88;53.63
35331;BME280;21441;52.190;20.910;2023-04-21T04:56:53;100564.34;;;10.92;53.07
35331;BME280;21441;52.190;20.910;2023-04-21T04:59:21;100562.16;;;11.04;52.72
35331;BME280;21441;52.190;20.910;2023-04-21T05:01:48;100559.50;;;11.21;51.76
35331;BME280;21441;52.190;20.910;2023-04-21T05:04:16;100554.19;;;11.29;51.15
35331;BME280;21441;52.190;20.910;2023-04-21T05:06:44;100561.50;;;11.43;51.12
35331;BME280;21441;52.190;20.910;2023-04-21T05:09:12;100545.97;;;11.47;50.33
35331;BME280;21441;52.190;20.910;2023-04-21T05:11:39;100547.47;;;11.41;50.79
35331;BME280;21441;52.190;20.910;2023-04-21T05:14:06;100553.47;;;11.60;50.43
35331;BME280;21441;52.190;20.910;2023-04-21T05:16:33;100554.44;;;11.75;50.17
35331;BME280;21441;52.190;20.910;2023-04-21T05:19:01;100545.06;;;11.79;49.75
35331;BME280;21441;52.190;20.910;2023-04-21T05:21:28;100548.72;;;11.94;49.59
35331;BME280;21441;52.190;20.910;2023-04-21T05:23:58;100549.56;;;11.95;48.92
35331;BME280;21441;52.190;20.910;2023-04-21T05:26:26;100547.50;;;12.05;48.25
35331;BME280;21441;52.190;20.910;2023-04-21T05:28:54;100551.16;;;12.12;48.57
35331;BME280;21441;52.190;20.910;2023-04-21T05:31:21;100553.06;;;12.35;48.14
35331;BME280;21441;52.190;20.910;2023-04-21T05:33:48;100556.13;;;12.55;47.60
35331;BME280;21441;52.190;20.910;2023-04-21T05:36:15;100551.13;;;12.52;47.40
35331;BME280;21441;52.190;20.910;2023-04-21T05:38:45;100555.03;;;12.41;47.24
35331;BME280;21441;52.190;20.910;2023-04-21T05:41:13;100551.44;;;12.57;46.22
35331;BME280;21441;52.190;20.910;2023-04-21T05:43:41;100554.59;;;12.61;46.30
35331;BME280;21441;52.190;20.910;2023-04-21T05:46:09;100545.34;;;12.71;46.53
35331;BME280;21441;52.190;20.910;2023-04-21T05:48:37;100552.75;;;12.84;45.25
35331;BME280;21441;52.190;20.910;2023-04-21T05:51:08;100554.00;;;12.96;45.15
35331;BME280;21441;52.190;20.910;2023-04-21T05:53:36;100553.59;;;13.08;45.40
35331;BME280;21441;52.190;20.910;2023-04-21T05:56:04;100545.66;;;13.37;44.61
35331;BME280;21441;52.190;20.910;2023-04-21T05:58:33;100545.66;;;13.37;45.02
35331;BME280;21441;52.190;20.910;2023-04-21T06:01:00;100548.75;;;13.26;45.05
35331;BME280;21441;52.190;20.910;2023-04-21T06:03:29;100539.69;;;13.27;45.08
35331;BME280;21441;52.190;20.910;2023-04-21T06:05:58;100550.94;;;13.46;44.78
35331;BME280;21441;52.190;20.910;2023-04-21T06:08:25;100540.97;;;13.54;44.82
35331;BME280;21441;52.190;20.910;2023-04-21T06:10:52;100538.41;;;13.76;44.31
35331;BME280;21441;52.190;20.910;2023-04-21T06:13:20;100532.75;;;14.00;43.44
35331;BME280;21441;52.190;20.910;2023-04-21T06:15:48;100537.44;;;14.28;42.90
35331;BME280;21441;52.190;20.910;2023-04-21T06:18:15;100531.91;;;14.00;42.71
35331;BME280;21441;52.190;20.910;2023-04-21T06:20:48;100545.59;;;14.20;42.67
35331;BME280;21441;52.190;20.910;2023-04-21T06:23:16;100546.94;;;14.31;42.39
35331;BME280;21441;52.190;20.910;2023-04-21T06:25:43;100543.03;;;13.97;42.57
35331;BME280;21441;52.190;20.910;2023-04-21T06:28:10;100530.22;;;14.14;41.60
35331;BME280;21441;52.190;20.910;2023-04-21T06:30:37;100538.16;;;14.37;41.54
35331;BME280;21441;52.190;20.910;2023-04-21T06:33:06;100533.50;;;14.45;41.61
35331;BME280;21441;52.190;20.910;2023-04-21T06:35:33;100532.22;;;14.56;40.41
35331;BME280;21441;52.190;20.910;2023-04-21T06:38:00;100530.69;;;14.69;40.82
35331;BME280;21441;52.190;20.910;2023-04-21T06:40:27;100537.19;;;14.59;39.98
35331;BME280;21441;52.190;20.910;2023-04-21T06:42:55;100542.63;;;14.66;40.47
35331;BME280;21441;52.190;20.910;2023-04-21T06:45:22;100529.97;;;14.81;40.25
35331;BME280;21441;52.190;20.910;2023-04-21T06:47:49;100540.91;;;14.58;39.62
35331;BME280;21441;52.190;20.910;2023-04-21T06:50:18;100533.97;;;14.49;40.14
35331;BME280;21441;52.190;20.910;2023-04-21T06:52:45;100532.47;;;14.83;40.27
35331;BME280;21441;52.190;20.910;2023-04-21T06:55:12;100531.25;;;15.07;39.91
35331;BME280;21441;52.190;20.910;2023-04-21T06:57:39;100527.88;;;14.98;39.24
35331;BME280;21441;52.190;20.910;2023-04-21T07:00:07;100530.97;;;14.95;39.30
35331;BME280;21441;52.190;20.910;2023-04-21T07:02:35;100531.84;;;15.02;38.28
35331;BME280;21441;52.190;20.910;2023-04-21T07:05:02;100531.84;;;15.02;38.38
35331;BME280;21441;52.190;20.910;2023-04-21T07:07:31;100531.44;;;15.05;38.37
35331;BME280;21441;52.190;20.910;2023-04-21T07:09:58;100531.19;;;15.22;38.52
35331;BME280;21441;52.190;20.910;2023-04-21T07:12:26;100526.63;;;15.22;38.13
35331;BME280;21441;52.190;20.910;2023-04-21T07:14:53;100530.84;;;15.60;37.36
35331;BME280;21441;52.190;20.910;2023-04-21T07:17:20;100525.38;;;15.75;37.13
35331;BME280;21441;52.190;20.910;2023-04-21T07:19:47;100526.94;;;15.97;37.58
35331;BME280;21441;52.190;20.910;2023-04-21T07:22:15;100532.16;;;16.05;36.73
35331;BME280;21441;52.190;20.910;2023-04-21T07:24:43;100525.16;;;16.18;36.23
35331;BME280;21441;52.190;20.910;2023-04-21T07:27:10;100530.78;;;16.23;35.80
35331;BME280;21441;52.190;20.910;2023-04-21T07:29:37;100515.25;;;16.25;35.68
35331;BME280;21441;52.190;20.910;2023-04-21T07:32:05;100521.94;;;16.36;36.79
35331;BME280;21441;52.190;20.910;2023-04-21T07:34:32;100521.56;;;16.52;36.12
35331;BME280;21441;52.190;20.910;2023-04-21T07:36:59;100521.16;;;16.62;35.97
35331;BME280;21441;52.190;20.910;2023-04-21T07:39:26;100523.84;;;16.68;36.34
35331;BME280;21441;52.190;20.910;2023-04-21T07:41:55;100515.22;;;16.86;34.33
35331;BME280;21441;52.190;20.910;2023-04-21T07:44:22;100509.84;;;17.06;34.02
35331;BME280;21441;52.190;20.910;2023-04-21T07:46:49;100511.09;;;17.10;33.81
35331;BME280;21441;52.190;20.910;2023-04-21T07:49:16;100515.25;;;17.20;34.80
35331;BME280;21441;52.190;20.910;2023-04-21T07:51:43;100518.34;;;17.23;34.06
35331;BME280;21441;52.190;20.910;2023-04-21T07:54:11;100513.16;;;17.35;34.09
35331;BME280;21441;52.190;20.910;2023-04-21T07:56:38;100510.25;;;17.30;35.32
35331;BME280;21441;52.190;20.910;2023-04-21T07:59:07;100502.78;;;17.32;33.95
35331;BME280;21441;52.190;20.910;2023-04-21T08:01:34;100513.34;;;17.47;33.78
35331;BME280;21441;52.190;20.910;2023-04-21T08:04:01;100506.50;;;17.44;33.13
35331;BME280;21441;52.190;20.910;2023-04-21T08:06:28;100510.41;;;17.62;33.16
35331;BME280;21441;52.190;20.910;2023-04-21T08:08:57;100506.03;;;17.67;32.39
35331;BME280;21441;52.190;20.910;2023-04-21T08:11:24;100498.38;;;17.64;32.26
35331;BME280;21441;52.190;20.910;2023-04-21T08:13:53;100502.50;;;17.67;33.05
35331;BME280;21441;52.190;20.910;2023-04-21T08:16:22;100503.53;;;17.72;32.57
35331;BME280;21441;52.190;20.910;2023-04-21T08:18:48;100486.72;;;17.84;32.27
35331;BME280;21441;52.190;20.910;2023-04-21T08:21:16;100504.19;;;17.68;32.04
35331;BME280;21441;52.190;20.910;2023-04-21T08:23:43;100504.56;;;17.85;32.22
35331;BME280;21441;52.190;20.910;2023-04-21T08:26:10;100498.09;;;17.99;31.89
35331;BME280;21441;52.190;20.910;2023-04-21T08:28:37;100497.91;;;17.94;31.24
35331;BME280;21441;52.190;20.910;2023-04-21T08:31:05;100492.63;;;18.12;30.76
35331;BME280;21441;52.190;20.910;2023-04-21T08:33:33;100489.28;;;18.17;30.77
35331;BME280;21441;52.190;20.910;2023-04-21T08:36:00;100488.44;;;18.23;31.26
35331;BME280;21441;52.190;20.910;2023-04-21T08:38:28;100493.41;;;18.20;30.45
35331;BME280;21441;52.190;20.910;2023-04-21T08:40:58;100497.28;;;18.37;30.77
35331;BME280;21441;52.190;20.910;2023-04-21T08:43:25;100496.41;;;18.43;30.65
35331;BME280;21441;52.190;20.910;2023-04-21T08:45:52;100482.84;;;18.18;29.99
35331;BME280;21441;52.190;20.910;2023-04-21T08:48:21;100485.84;;;17.97;30.51
35331;BME280;21441;52.190;20.910;2023-04-21T08:50:51;100475.81;;;18.10;30.39
35331;BME280;21441;52.190;20.910;2023-04-21T08:53:18;100485.44;;;18.38;30.09
35331;BME280;21441;52.190;20.910;2023-04-21T08:55:51;100469.31;;;18.56;30.28
35331;BME280;21441;52.190;20.910;2023-04-21T08:58:19;100472.75;;;18.70;30.67
35331;BME280;21441;52.190;20.910;2023-04-21T09:00:48;100477.72;;;18.80;29.87
35331;BME280;21441;52.190;20.910;2023-04-21T09:03:20;100474.81;;;18.75;29.10
35331;BME280;21441;52.190;20.910;2023-04-21T09:05:57;100473.28;;;18.86;28.28
35331;BME280;21441;52.190;20.910;2023-04-21T09:08:25;100481.28;;;19.06;28.59
35331;BME280;21441;52.190;20.910;2023-04-21T09:10:55;100473.59;;;19.03;28.34
35331;BME280;21441;52.190;20.910;2023-04-21T09:13:28;100471.63;;;19.10;28.21
35331;BME280;21441;52.190;20.910;2023-04-21T09:15:56;100459.53;;;19.19;28.75
35331;BME280;21441;52.190;20.910;2023-04-21T09:18:25;100467.66;;;19.37;28.66
35331;BME280;21441;52.190;20.910;2023-04-21T09:21:06;100472.25;;;19.37;28.00
35331;BME280;21441;52.190;20.910;2023-04-21T09:23:39;100465.81;;;19.31;28.31
35331;BME280;21441;52.190;20.910;2023-04-21T09:26:07;100460.00;;;19.53;28.07
35331;BME280;21441;52.190;20.910;2023-04-21T09:28:34;100457.56;;;19.70;27.96
35331;BME280;21441;52.190;20.910;2023-04-21T09:31:01;100457.63;;;19.82;27.46
35331;BME280;21441;52.190;20.910;2023-04-21T09:33:32;100452.97;;;19.70;27.41
35331;BME280;21441;52.190;20.910;2023-04-21T09:36:00;100452.53;;;19.67;27.65
35331;BME280;21441;52.190;20.910;2023-04-21T09:38:29;100458.91;;;19.79;28.58
35331;BME280;21441;52.190;20.910;2023-04-21T09:40:56;100455.03;;;20.05;28.67
35331;BME280;21441;52.190;20.910;2023-04-21T09:43:24;100447.88;;;20.11;27.45
35331;BME280;21441;52.190;20.910;2023-04-21T09:45:52;100450.63;;;20.23;28.25
35331;BME280;21441;52.190;20.910;2023-04-21T09:48:21;100437.84;;;20.41;27.53
35331;BME280;21441;52.190;20.910;2023-04-21T09:50:52;100441.94;;;20.32;27.19
35331;BME280;21441;52.190;20.910;2023-04-21T09:53:20;100435.78;;;20.13;27.13
35331;BME280;21441;52.190;20.910;2023-04-21T09:55:53;100437.19;;;20.16;27.32
35331;BME280;21441;52.190;20.910;2023-04-21T09:58:27;100430.34;;;19.83;27.23
35331;BME280;21441;52.190;20.910;2023-04-21T10:00:56;100422.66;;;20.10;27.55
35331;BME280;21441;52.190;20.910;2023-04-21T10:03:26;100429.38;;;20.08;27.19
35331;BME280;21441;52.190;20.910;2023-04-21T10:05:54;100431.16;;;19.84;26.99
35331;BME280;21441;52.190;20.910;2023-04-21T10:08:21;100424.13;;;19.94;27.24
35331;BME280;21441;52.190;20.910;2023-04-21T10:10:50;100417.44;;;20.27;27.44
35331;BME280;21441;52.190;20.910;2023-04-21T10:13:18;100409.66;;;20.61;27.94
35331;BME280;21441;52.190;20.910;2023-04-21T10:15:46;100412.09;;;20.51;26.80
35331;BME280;21441;52.190;20.910;2023-04-21T10:18:17;100406.19;;;20.42;26.84
35331;BME280;21441;52.190;20.910;2023-04-21T10:20:52;100407.66;;;20.26;26.23
35331;BME280;21441;52.190;20.910;2023-04-21T10:23:28;100402.66;;;20.53;26.39
35331;BME280;21441;52.190;20.910;2023-04-21T10:26:05;100404.84;;;20.33;26.10
35331;BME280;21441;52.190;20.910;2023-04-21T10:31:30;100394.88;;;20.45;26.38
35331;BME280;21441;52.190;20.910;2023-04-21T10:34:17;100399.00;;;20.48;26.51
35331;BME280;21441;52.190;20.910;2023-04-21T10:39:35;100385.38;;;21.25;25.70
35331;BME280;21441;52.190;20.910;2023-04-21T10:42:23;100384.63;;;21.53;25.60
35331;BME280;21441;52.190;20.910;2023-04-21T10:47:46;100385.00;;;21.33;25.04
35331;BME280;21441;52.190;20.910;2023-04-21T10:50:18;100381.78;;;21.60;25.93
35331;BME280;21441;52.190;20.910;2023-04-21T10:52:51;100377.81;;;21.91;25.42
35331;BME280;21441;52.190;20.910;2023-04-21T10:55:19;100373.44;;;21.90;24.65
35331;BME280;21441;52.190;20.910;2023-04-21T10:57:49;100374.66;;;21.42;24.89
35331;BME280;21441;52.190;20.910;2023-04-21T11:00:18;100374.31;;;21.79;24.72
35331;BME280;21441;52.190;20.910;2023-04-21T11:02:56;100362.13;;;21.81;25.11
35331;BME280;21441;52.190;20.910;2023-04-21T11:05:28;100364.41;;;22.01;25.14
35331;BME280;21441;52.190;20.910;2023-04-21T11:08:06;100357.63;;;21.87;25.00
35331;BME280;21441;52.190;20.910;2023-04-21T11:10:51;100351.34;;;21.87;26.11
35331;BME280;21441;52.190;20.910;2023-04-21T11:13:22;100346.69;;;21.41;25.23
35331;BME280;21441;52.190;20.910;2023-04-21T11:16:00;100349.06;;;21.95;26.33
35331;BME280;21441;52.190;20.910;2023-04-21T11:18:32;100351.19;;;21.93;24.32
35331;BME280;21441;52.190;20.910;2023-04-21T11:21:14;100356.38;;;22.23;24.47
35331;BME280;21441;52.190;20.910;2023-04-21T11:23:49;100343.31;;;22.71;24.42
35331;BME280;21441;52.190;20.910;2023-04-21T11:26:17;100326.41;;;22.86;24.01
35331;BME280;21441;52.190;20.910;2023-04-21T11:28:50;100316.16;;;22.93;23.83
35331;BME280;21441;52.190;20.910;2023-04-21T11:31:22;100271.41;;;22.62;24.64
35331;BME280;21441;52.190;20.910;2023-04-21T11:33:49;100282.75;;;22.98;23.67
35331;BME280;21441;52.190;20.910;2023-04-21T11:36:20;100263.84;;;22.13;23.52
35331;BME280;21441;52.190;20.910;2023-04-21T11:38:48;100316.16;;;22.37;23.85
35331;BME280;21441;52.190;20.910;2023-04-21T11:41:19;100312.41;;;22.77;23.46
35331;BME280;21441;52.190;20.910;2023-04-21T11:43:47;100258.00;;;22.04;23.14
35331;BME280;21441;52.190;20.910;2023-04-21T11:46:24;100265.50;;;22.31;23.11
35331;BME280;21441;52.190;20.910;2023-04-21T11:48:59;100251.00;;;22.42;22.73
35331;BME280;21441;52.190;20.910;2023-04-21T11:51:31;100309.03;;;23.09;23.00
35331;BME280;21441;52.190;20.910;2023-04-21T11:53:59;100307.19;;;22.93;23.06
35331;BME280;21441;52.190;20.910;2023-04-21T11:56:26;100298.63;;;22.84;23.36
35331;BME280;21441;52.190;20.910;2023-04-21T11:58:53;100263.09;;;22.35;23.05
35331;BME280;21441;52.190;20.910;2023-04-21T12:01:22;100285.00;;;22.45;22.67
35331;BME280;21441;52.190;20.910;2023-04-21T12:03:51;100257.84;;;22.11;23.04
35331;BME280;21441;52.190;20.910;2023-04-21T12:06:25;100303.22;;;23.00;23.06
35331;BME280;21441;52.190;20.910;2023-04-21T12:08:54;100271.16;;;23.02;21.76
35331;BME280;21441;52.190;20.910;2023-04-21T12:11:22;100250.47;;;23.23;22.49
35331;BME280;21441;52.190;20.910;2023-04-21T12:13:50;100249.34;;;23.46;21.71
35331;BME280;21441;52.190;20.910;2023-04-21T12:16:17;100278.09;;;24.19;22.49
35331;BME280;21441;52.190;20.910;2023-04-21T12:18:48;100238.88;;;24.25;21.75
35331;BME280;21441;52.190;20.910;2023-04-21T12:21:15;100268.25;;;24.50;21.28
35331;BME280;21441;52.190;20.910;2023-04-21T12:23:42;100242.38;;;23.06;22.71
35331;BME280;21441;52.190;20.910;2023-04-21T12:26:10;100207.22;;;22.83;22.62
35331;BME280;21441;52.190;20.910;2023-04-21T12:28:38;100270.75;;;23.87;22.42
35331;BME280;21441;52.190;20.910;2023-04-21T12:31:05;100234.56;;;23.92;22.12
35331;BME280;21441;52.190;20.910;2023-04-21T12:33:33;100200.25;;;23.36;21.68
35331;BME280;21441;52.190;20.910;2023-04-21T12:36:01;100250.97;;;24.39;21.37
35331;BME280;21441;52.190;20.910;2023-04-21T12:38:28;100243.28;;;24.68;20.69
35331;BME280;21441;52.190;20.910;2023-04-21T12:40:55;100229.06;;;24.61;20.61
35331;BME280;21441;52.190;20.910;2023-04-21T12:43:23;100244.78;;;24.97;21.01
35331;BME280;21441;52.190;20.910;2023-04-21T12:45:51;100246.84;;;25.42;20.50
35331;BME280;21441;52.190;20.910;2023-04-21T12:48:18;100235.16;;;25.67;20.81
35331;BME280;21441;52.190;20.910;2023-04-21T12:50:45;100245.78;;;25.43;20.17
35331;BME280;21441;52.190;20.910;2023-04-21T12:53:14;100204.41;;;25.04;20.04
35331;BME280;21441;52.190;20.910;2023-04-21T12:55:41;100240.56;;;25.47;20.01
35331;BME280;21441;52.190;20.910;2023-04-21T12:58:08;100240.47;;;24.53;20.50